Time;durP1;ratioP1;P1;durP2;ratioP2;P2;SDS_P1;SDS_P2;PMS_P1;PMS_P2;Temp;Humidity;BMP_temperature;BMP_pressure;BME280_temperature;BME280_humidity;BME280_pressure;Samples;Min_cycle;Max_cycle;Signal;HPM_P1;HPM_P2
2021/04/12 00:00:21;;;;;;;5.35;4.22;;;12.00;99.90;;;;;;5009946;28;20106;-77
2021/04/12 00:02:52;;;;;;;5.65;4.15;;;12.10;99.90;;;;;;5011916;28;20381;-79
2021/04/12 00:05:29;;;;;;;6.78;4.10;;;12.00;99.90;;;;;;5003182;28;20033;-79
2021/04/12 00:08:52;;;;;;;6.90;4.45;;;12.00;99.90;;;;;;5011941;28;20030;-80
2021/04/12 00:11:35;;;;;;;6.53;4.40;;;12.00;99.90;;;;;;4954261;28;20202;-79
2021/04/12 00:14:08;;;;;;;5.00;4.07;;;11.80;99.90;;;;;;4953196;28;20023;-78
2021/04/12 00:16:49;;;;;;;8.27;4.53;;;11.90;99.90;;;;;;4996594;28;20034;-77
2021/04/12 00:19:26;;;;;;;4.78;3.80;;;12.00;99.90;;;;;;5011339;28;20424;-79
2021/04/12 00:22:03;;;;;;;7.78;4.22;;;11.80;99.90;;;;;;5024276;28;20041;-79
2021/04/12 00:24:42;;;;;;;6.82;4.57;;;11.70;99.90;;;;;;5030851;28;20120;-80
2021/04/12 00:27:40;;;;;;;6.78;4.28;;;11.80;99.90;;;;;;5031973;28;20025;-79
2021/04/12 00:30:19;;;;;;;7.22;4.47;;;11.90;99.90;;;;;;5007617;28;20034;-79
2021/04/12 00:32:51;;;;;;;5.53;4.25;;;11.90;99.90;;;;;;5035247;28;20018;-77
2021/04/12 00:35:31;;;;;;;7.40;4.72;;;11.90;99.90;;;;;;5034768;28;20072;-78
2021/04/12 00:38:10;;;;;;;5.55;4.18;;;11.90;99.90;;;;;;5034582;28;20069;-79
2021/04/12 00:41:14;;;;;;;7.03;4.50;;;11.50;99.90;;;;;;5034475;28;20104;-77
2021/04/12 00:43:39;;;;;;;9.43;4.90;;;11.20;99.90;;;;;;5017231;28;20026;-77
2021/04/12 00:46:28;;;;;;;5.88;4.45;;;11.20;99.90;;;;;;5034713;28;20032;-77
2021/04/12 00:49:13;;;;;;;6.32;4.45;;;11.20;99.90;;;;;;5035167;28;20036;-80
2021/04/12 00:52:09;;;;;;;7.82;4.43;;;11.40;99.90;;;;;;5034822;28;20488;-80
2021/04/12 00:55:13;;;;;;;6.38;4.43;;;11.50;99.90;;;;;;5034124;28;20032;-79
2021/04/12 00:57:51;;;;;;;6.10;4.20;;;11.60;99.90;;;;;;5016725;28;20037;-80
2021/04/12 01:00:33;;;;;;;5.40;4.13;;;11.30;99.90;;;;;;5034182;28;20152;-78
2021/04/12 01:03:29;;;;;;;7.03;4.32;;;10.90;99.90;;;;;;5028923;28;20405;-81
2021/04/12 01:06:08;;;;;;;6.10;4.43;;;11.10;99.90;;;;;;5017498;28;20018;-78
2021/04/12 01:09:02;;;;;;;7.65;4.50;;;11.10;99.90;;;;;;5010058;28;20037;-80
2021/04/12 01:11:54;;;;;;;7.38;4.63;;;11.30;99.90;;;;;;5014179;28;20386;-78
2021/04/12 01:14:23;;;;;;;6.40;4.07;;;11.40;99.90;;;;;;4960457;28;20517;-76
2021/04/12 01:16:54;;;;;;;5.38;4.60;;;11.40;99.90;;;;;;5015584;28;20046;-79
2021/04/12 01:19:38;;;;;;;9.07;4.40;;;11.50;99.90;;;;;;5016722;28;20040;-76
2021/04/12 01:22:41;;;;;;;5.95;4.22;;;11.30;99.90;;;;;;5002975;28;20397;-75
2021/04/12 01:25:15;;;;;;;4.95;4.25;;;11.40;99.90;;;;;;5014182;28;20030;-77
2021/04/12 01:27:50;;;;;;;5.75;4.53;;;11.30;99.90;;;;;;4996814;28;20038;-78
2021/04/12 01:30:31;;;;;;;6.38;4.55;;;11.20;99.90;;;;;;5013952;28;20115;-80
2021/04/12 01:33:39;;;;;;;4.95;3.97;;;11.40;99.90;;;;;;5014273;28;20065;-77
2021/04/12 01:36:08;;;;;;;5.20;3.85;;;11.10;99.90;;;;;;5013743;28;20484;-75
2021/04/12 01:38:41;;;;;;;6.50;4.07;;;11.30;99.90;;;;;;5013747;28;20125;-79
2021/04/12 01:41:32;;;;;;;5.68;4.40;;;11.40;99.90;;;;;;5013412;28;20030;-76
2021/04/12 01:44:13;;;;;;;5.55;4.18;;;11.40;99.90;;;;;;5013973;28;20018;-79
2021/04/12 01:47:09;;;;;;;6.95;4.68;;;11.30;99.90;;;;;;5013689;28;20030;-77
2021/04/12 01:49:59;;;;;;;7.63;4.55;;;11.30;99.90;;;;;;4990691;28;20049;-77
2021/04/12 01:52:43;;;;;;;6.13;4.60;;;11.40;99.90;;;;;;5013338;28;20030;-79
2021/04/12 01:55:23;;;;;;;7.88;4.75;;;11.20;99.90;;;;;;5013989;28;20083;-77
2021/04/12 01:58:43;;;;;;;5.65;4.40;;;11.20;99.90;;;;;;5013907;28;20025;-79
2021/04/12 02:01:46;;;;;;;10.48;5.47;;;11.20;99.90;;;;;;4914437;29;20028;-79
2021/04/12 02:04:32;;;;;;;5.30;4.22;;;10.80;99.90;;;;;;5013641;28;20026;-78
2021/04/12 02:07:04;;;;;;;12.10;4.18;;;10.90;99.90;;;;;;5012937;28;20030;-78
2021/04/12 02:09:36;;;;;;;6.50;4.47;;;10.90;99.90;;;;;;5013792;28;20030;-76
2021/04/12 02:12:52;;;;;;;7.85;4.65;;;11.00;99.90;;;;;;5013012;28;20025;-79
2021/04/12 02:15:55;;;;;;;4.93;4.10;;;11.10;99.90;;;;;;4972079;28;20092;-77
2021/04/12 02:18:35;;;;;;;5.18;4.18;;;10.80;99.90;;;;;;5013513;28;20025;-79
2021/04/12 02:21:24;;;;;;;5.93;4.45;;;10.60;99.90;;;;;;4998160;28;20036;-79
2021/04/12 02:24:12;;;;;;;5.68;4.25;;;10.60;99.90;;;;;;5033808;28;20053;-79
2021/04/12 02:26:53;;;;;;;5.45;4.15;;;10.80;99.90;;;;;;5032742;28;20035;-78
2021/04/12 02:29:42;;;;;;;5.32;4.22;;;10.80;99.90;;;;;;5033138;28;20036;-79
2021/04/12 02:32:35;;;;;;;6.40;4.50;;;11.00;99.90;;;;;;5032748;28;20021;-77
2021/04/12 02:35:12;;;;;;;6.90;4.30;;;10.90;99.90;;;;;;5033040;28;20097;-79
2021/04/12 02:38:03;;;;;;;6.68;4.55;;;10.60;99.90;;;;;;5032526;28;20033;-80
2021/04/12 02:40:47;;;;;;;;;;;10.80;99.90;;;;;;5033718;28;20021;-80
2021/04/12 02:43:54;;;;;;;5.97;3.92;;;11.10;99.90;;;;;;5031751;28;19956;-79
2021/04/12 02:46:39;;;;;;;5.57;4.28;;;11.20;99.90;;;;;;5018580;28;20133;-78
2021/04/12 02:49:21;;;;;;;5.72;4.25;;;11.20;99.90;;;;;;5033078;28;20034;-78
2021/04/12 02:52:11;;;;;;;7.07;4.60;;;11.20;99.90;;;;;;5031739;28;20025;-79
2021/04/12 02:54:53;;;;;;;7.10;4.93;;;11.30;99.90;;;;;;5032658;28;20041;-80
2021/04/12 02:57:29;;;;;;;6.75;4.68;;;11.20;99.90;;;;;;5031895;28;20377;-78
2021/04/12 03:00:27;;;;;;;7.28;4.13;;;11.30;99.90;;;;;;5032581;28;20023;-78
2021/04/12 03:02:57;;;;;;;6.00;4.32;;;11.40;99.90;;;;;;5031743;28;20040;-80
2021/04/12 03:05:55;;;;;;;;;;;11.40;99.90;;;;;;5032795;28;20045;-79
2021/04/12 03:08:39;;;;;;;6.50;5.05;;;11.40;99.90;;;;;;4982236;28;19928;-80
2021/04/12 03:11:15;;;;;;;8.30;4.40;;;11.30;99.90;;;;;;5032593;28;20389;-81
2021/04/12 03:14:18;;;;;;;8.18;4.50;;;11.30;99.90;;;;;;5031045;28;20021;-81
2021/04/12 03:17:11;;;;;;;5.88;4.30;;;11.30;99.90;;;;;;5031751;28;20408;-81
2021/04/12 03:20:11;;;;;;;5.90;4.20;;;11.10;99.90;;;;;;5014648;28;20068;-78
2021/04/12 03:22:55;;;;;;;7.90;4.90;;;11.00;99.90;;;;;;5017069;28;20121;-80
2021/04/12 03:25:51;;;;;;;6.70;4.40;;;11.20;99.90;;;;;;5012630;28;20022;-80
2021/04/12 03:28:37;;;;;;;6.82;5.07;;;11.20;99.90;;;;;;5011465;28;20045;-79
2021/04/12 03:31:21;;;;;;;7.93;4.97;;;11.10;99.90;;;;;;5012372;28;20022;-80
2021/04/12 03:34:19;;;;;;;7.70;5.28;;;11.20;99.90;;;;;;5011028;28;20065;-81
2021/04/12 03:36:45;;;;;;;5.88;5.03;;;11.10;99.90;;;;;;4994061;28;20057;-80
2021/04/12 03:39:22;;;;;;;10.43;4.97;;;11.20;99.90;;;;;;5012503;28;20378;-81
2021/04/12 03:41:47;;;;;;;10.07;4.78;;;11.30;99.90;;;;;;5012122;28;20026;-79
2021/04/12 03:44:27;;;;;;;8.90;4.90;;;11.20;99.90;;;;;;5011707;28;20026;-80
2021/04/12 03:47:24;;;;;;;7.25;4.78;;;11.10;99.90;;;;;;5012180;28;20123;-80
2021/04/12 03:50:21;;;;;;;10.02;4.95;;;11.20;99.90;;;;;;5012346;28;20037;-79
2021/04/12 03:53:05;;;;;;;8.70;5.75;;;11.30;99.90;;;;;;5011241;28;20058;-80
2021/04/12 03:56:08;;;;;;;8.77;5.28;;;11.10;99.90;;;;;;5012421;28;20092;-80
2021/04/12 03:58:34;;;;;;;7.10;5.18;;;11.00;99.90;;;;;;5011480;28;20100;-79
2021/04/12 04:01:15;;;;;;;8.43;5.30;;;11.10;99.90;;;;;;5012038;28;20042;-79
2021/04/12 04:04:05;;;;;;;7.32;4.85;;;11.20;99.90;;;;;;5010951;28;20366;-79
2021/04/12 04:07:00;;;;;;;8.43;5.15;;;11.00;99.90;;;;;;5012141;28;20393;-80
2021/04/12 04:09:47;;;;;;;6.32;5.03;;;11.20;99.90;;;;;;5011253;28;20046;-79
2021/04/12 04:12:46;;;;;;;7.85;4.85;;;11.30;99.90;;;;;;5010849;28;20053;-78
2021/04/12 04:15:44;;;;;;;15.02;6.25;;;11.10;99.90;;;;;;4994848;28;20026;-76
2021/04/12 04:18:29;;;;;;;6.57;4.68;;;11.20;99.90;;;;;;4965542;28;20049;-78
2021/04/12 04:21:01;;;;;;;8.40;5.03;;;11.30;99.90;;;;;;5011641;28;20083;-80
2021/04/12 04:24:05;;;;;;;6.57;4.95;;;11.40;99.90;;;;;;4974177;28;20079;-77
2021/04/12 04:26:42;;;;;;;8.57;5.18;;;11.20;99.90;;;;;;4992329;28;20061;-78
2021/04/12 04:29:23;;;;;;;10.45;5.85;;;10.40;99.90;;;;;;4991777;28;20062;-77
2021/04/12 04:32:07;;;;;;;;;;;10.60;99.90;;;;;;4992482;28;20042;-78
2021/04/12 04:34:53;;;;;;;7.25;5.13;;;10.90;99.90;;;;;;4991419;28;20044;-78
2021/04/12 04:37:44;;;;;;;10.05;6.43;;;10.70;99.90;;;;;;4992257;28;20595;-78
2021/04/12 04:40:29;;;;;;;10.50;6.18;;;10.20;99.90;;;;;;4992164;28;20057;-78
2021/04/12 04:43:13;;;;;;;9.27;6.22;;;10.40;99.90;;;;;;4991624;28;20037;-80
2021/04/12 04:46:01;;;;;;;7.93;5.60;;;10.70;99.90;;;;;;4992270;28;20073;-78
2021/04/12 04:48:42;;;;;;;11.95;6.88;;;10.80;99.90;;;;;;4991342;28;20402;-79
2021/04/12 04:51:39;;;;;;;9.13;6.22;;;10.20;99.90;;;;;;4991776;28;20116;-77
2021/04/12 04:54:27;;;;;;;10.68;6.30;;;10.40;99.90;;;;;;4973808;28;20031;-80
2021/04/12 04:57:17;;;;;;;9.80;6.00;;;10.30;99.90;;;;;;4991375;28;20423;-77
2021/04/12 05:00:04;;;;;;;9.35;6.70;;;10.50;99.90;;;;;;4974238;28;20069;-80
2021/04/12 05:03:00;;;;;;;10.77;6.85;;;11.00;99.90;;;;;;4992098;28;20390;-80
2021/04/12 05:05:34;;;;;;;19.67;7.18;;;11.30;99.90;;;;;;4991811;28;20386;-78
2021/04/12 05:08:09;;;;;;;12.32;7.00;;;11.50;99.90;;;;;;4991309;28;20035;-80
2021/04/12 05:11:21;;;;;;;12.98;7.50;;;11.20;99.90;;;;;;4973987;28;20453;-79
2021/04/12 05:14:12;;;;;;;11.38;6.57;;;11.50;99.90;;;;;;4939911;28;20069;-80
2021/04/12 05:17:03;;;;;;;20.85;15.60;;;11.30;99.90;;;;;;4977822;28;20033;-79
2021/04/12 05:19:38;;;;;;;38.70;21.95;;;12.10;99.90;;;;;;4994633;28;20034;-78
2021/04/12 05:22:21;;;;;;;46.05;30.17;;;12.50;99.90;;;;;;5008723;28;20026;-78
2021/04/12 05:24:53;;;;;;;43.92;28.30;;;12.60;99.90;;;;;;5016123;28;20066;-78
2021/04/12 05:27:56;;;;;;;30.88;19.90;;;12.90;99.90;;;;;;4998456;28;20038;-77
2021/04/12 05:30:40;;;;;;;53.25;30.67;;;13.00;99.90;;;;;;5006156;28;20447;-83
2021/04/12 05:33:14;;;;;;;40.28;24.48;;;13.30;99.90;;;;;;5010762;28;20374;-81
2021/04/12 05:35:49;;;;;;;12.15;6.95;;;13.10;99.90;;;;;;5033215;28;20049;-80
2021/04/12 05:38:27;;;;;;;9.50;5.93;;;12.10;99.90;;;;;;5015821;28;20035;-82
2021/04/12 05:41:07;;;;;;;11.27;5.68;;;12.00;99.90;;;;;;5015573;28;20048;-80
2021/04/12 05:43:56;;;;;;;8.88;5.72;;;11.80;99.90;;;;;;5033034;28;20074;-79
2021/04/12 05:46:37;;;;;;;11.73;6.78;;;11.30;99.90;;;;;;5022617;28;20033;-79
2021/04/12 05:49:24;;;;;;;13.00;6.40;;;11.40;99.90;;;;;;5032398;28;20527;-78
2021/04/12 05:52:15;;;;;;;11.30;6.65;;;11.60;99.90;;;;;;5015792;28;20029;-79
2021/04/12 05:55:24;;;;;;;11.13;6.70;;;11.70;99.90;;;;;;5032682;28;20088;-78
2021/04/12 05:58:10;;;;;;;15.82;6.93;;;11.10;99.90;;;;;;5002463;28;20111;-80
2021/04/12 06:01:04;;;;;;;9.40;6.32;;;11.80;99.90;;;;;;5014639;28;20091;-79
2021/04/12 06:03:51;;;;;;;12.05;7.38;;;11.70;99.90;;;;;;5013045;28;20026;-82
2021/04/12 06:06:23;;;;;;;50.67;30.65;;;12.30;99.90;;;;;;5013389;28;20385;-82
2021/04/12 06:09:35;;;;;;;22.67;14.40;;;12.90;99.90;;;;;;4995004;28;20056;-79
2021/04/12 06:12:22;;;;;;;11.43;7.05;;;13.20;99.90;;;;;;4995177;28;20367;-79
2021/04/12 06:14:54;;;;;;;12.15;6.35;;;12.20;99.90;;;;;;4994683;28;20026;-79
2021/04/12 06:17:45;;;;;;;11.00;6.53;;;12.00;99.90;;;;;;4994848;28;20422;-79
2021/04/12 06:20:37;;;;;;;12.93;6.30;;;12.40;99.90;;;;;;4993189;28;20116;-80
2021/04/12 06:23:27;;;;;;;15.07;6.25;;;12.60;99.90;;;;;;5011274;28;20400;-79
2021/04/12 06:26:30;;;;;;;12.77;5.32;;;12.60;99.90;;;;;;4992425;28;20069;-79
2021/04/12 06:29:30;;;;;;;11.52;5.50;;;12.50;99.90;;;;;;5011030;28;20084;-80
2021/04/12 06:32:20;;;;;;;11.98;6.50;;;12.10;99.90;;;;;;4993556;28;20033;-79
2021/04/12 06:35:28;;;;;;;13.25;6.75;;;12.40;99.90;;;;;;5011954;28;20046;-79
2021/04/12 06:38:06;;;;;;;12.95;7.13;;;12.80;99.90;;;;;;5006515;28;20046;-80
2021/04/12 06:40:59;;;;;;;10.18;6.45;;;13.20;99.90;;;;;;5010979;28;20104;-79
2021/04/12 06:43:46;;;;;;;17.15;7.38;;;13.20;99.90;;;;;;4987816;28;20506;-81
2021/04/12 06:46:41;;;;;;;14.88;7.20;;;13.30;99.90;;;;;;5008685;28;20041;-79
2021/04/12 06:49:34;;;;;;;18.05;7.03;;;13.50;99.90;;;;;;4995223;28;20033;-78
2021/04/12 06:52:24;;;;;;;11.70;7.10;;;13.20;99.90;;;;;;4995066;28;20060;-79
2021/04/12 06:55:19;;;;;;;12.23;6.13;;;13.10;99.90;;;;;;5011706;28;20099;-79
2021/04/12 06:58:03;;;;;;;14.20;6.65;;;13.30;99.90;;;;;;4994814;28;20029;-79
2021/04/12 07:01:06;;;;;;;13.82;6.80;;;13.60;99.90;;;;;;4992429;28;20123;-79
2021/04/12 07:04:09;;;;;;;12.43;6.63;;;13.40;99.90;;;;;;4992779;28;20026;-82
2021/04/12 07:06:56;;;;;;;15.88;6.30;;;13.30;99.90;;;;;;4992361;28;20486;-78
2021/04/12 07:09:49;;;;;;;12.65;6.30;;;13.40;99.90;;;;;;4975227;28;20043;-79
2021/04/12 07:12:43;;;;;;;12.15;6.57;;;13.70;99.90;;;;;;4992766;28;20026;-81
2021/04/12 07:15:37;;;;;;;9.82;6.03;;;13.80;99.90;;;;;;4992220;28;20109;-79
2021/04/12 07:18:26;;;;;;;10.70;5.95;;;13.90;99.90;;;;;;5012172;28;20096;-80
2021/04/12 07:20:57;;;;;;;12.05;6.10;;;13.90;99.90;;;;;;5011299;28;20026;-78
2021/04/12 07:24:05;;;;;;;13.80;5.85;;;13.90;99.90;;;;;;5027205;28;20453;-79
2021/04/12 07:26:49;;;;;;;9.43;6.10;;;13.70;99.90;;;;;;5016569;28;20478;-80
2021/04/12 07:29:53;;;;;;;8.43;5.75;;;13.80;99.90;;;;;;4997283;28;20520;-80
2021/04/12 07:32:38;;;;;;;10.75;6.20;;;13.70;99.90;;;;;;4991574;28;20022;-80
2021/04/12 07:35:41;;;;;;;11.45;6.05;;;14.10;99.90;;;;;;4992236;28;20479;-81
2021/04/12 07:38:32;;;;;;;8.82;5.97;;;14.20;99.50;;;;;;4992519;28;20065;-81
2021/04/12 07:41:38;;;;;;;12.00;6.15;;;14.40;98.90;;;;;;4974218;28;20034;-80
2021/04/12 07:44:42;;;;;;;14.00;6.35;;;14.20;99.20;;;;;;4991889;28;20477;-80
2021/04/12 07:47:45;;;;;;;12.02;6.25;;;14.50;98.90;;;;;;5010586;28;20375;-80
2021/04/12 07:50:48;;;;;;;11.05;6.15;;;14.60;98.60;;;;;;5011699;28;20233;-78
2021/04/12 07:53:55;;;;;;;10.27;6.13;;;14.80;98.60;;;;;;4995630;28;20061;-82
2021/04/12 07:56:48;;;;;;;11.57;6.25;;;14.60;98.10;;;;;;4983557;28;20096;-78
2021/04/12 07:59:39;;;;;;;11.38;6.03;;;14.20;97.50;;;;;;5007198;28;20026;-80
2021/04/12 08:02:57;;;;;;;12.38;5.97;;;14.30;97.60;;;;;;5009954;28;20370;-79
2021/04/12 08:06:09;;;;;;;12.00;6.20;;;14.80;98.00;;;;;;5009282;28;20037;-82
2021/04/12 08:09:02;;;;;;;10.98;6.35;;;14.90;97.10;;;;;;5003058;28;20034;-80
2021/04/12 08:11:43;;;;;;;9.05;6.00;;;15.00;97.10;;;;;;5002624;28;20030;-81
2021/04/12 08:14:21;;;;;;;;;;;15.10;96.40;;;;;;5011218;28;20026;-79
2021/04/12 08:17:20;;;;;;;10.13;6.32;;;15.00;95.40;;;;;;5006709;28;20332;-81
2021/04/12 08:20:20;;;;;;;15.77;6.68;;;15.30;95.70;;;;;;5017692;28;20057;-81
2021/04/12 08:23:23;;;;;;;8.82;5.88;;;15.30;94.10;;;;;;5030262;28;20108;-79
2021/04/12 08:26:16;;;;;;;13.20;6.85;;;15.20;94.10;;;;;;5030655;28;20025;-80
2021/04/12 08:28:59;;;;;;;16.98;6.43;;;15.40;94.60;;;;;;5006498;28;20038;-79
2021/04/12 08:31:45;;;;;;;10.65;6.70;;;15.70;94.10;;;;;;5010311;28;20117;-81
2021/04/12 08:34:23;;;;;;;12.90;6.78;;;15.50;94.00;;;;;;5011165;28;20050;-79
2021/04/12 08:37:04;;;;;;;10.13;7.00;;;15.70;93.70;;;;;;4992820;28;20535;-79
2021/04/12 08:39:51;;;;;;;9.43;6.25;;;16.00;93.00;;;;;;5010980;28;20033;-79
2021/04/12 08:42:48;;;;;;;15.23;7.13;;;16.30;91.20;;;;;;5001626;28;20355;-80
2021/04/12 08:45:52;;;;;;;12.07;6.55;;;16.20;90.60;;;;;;5010563;28;20026;-81
2021/04/12 08:48:19;;;;;;;10.68;6.30;;;16.50;90.20;;;;;;4992176;28;20073;-86
2021/04/12 08:51:12;;;;;;;15.10;8.38;;;16.80;88.50;;;;;;5014857;28;20063;-83
2021/04/12 08:53:40;;;;;;;15.23;8.35;;;17.30;86.30;;;;;;5014694;28;20033;-86
2021/04/12 08:56:32;;;;;;;12.38;7.47;;;17.80;84.50;;;;;;5009874;28;20108;-81
2021/04/12 08:59:16;;;;;;;10.18;6.65;;;17.90;80.00;;;;;;4996397;28;20022;-79
2021/04/12 09:02:03;;;;;;;10.25;6.13;;;18.00;77.20;;;;;;5013631;28;20053;-81
2021/04/12 09:04:58;;;;;;;10.32;6.45;;;17.50;79.40;;;;;;5014247;28;20057;-79
2021/04/12 09:07:56;;;;;;;11.02;5.95;;;17.80;79.80;;;;;;5013167;28;20088;-78
2021/04/12 09:11:01;;;;;;;13.88;6.57;;;18.00;76.70;;;;;;5013870;28;20378;-80
2021/04/12 09:14:04;;;;;;;14.48;6.43;;;18.40;75.40;;;;;;5013349;28;20036;-78
2021/04/12 09:16:30;;;;;;;10.68;6.13;;;18.20;74.20;;;;;;5012615;28;20025;-78
2021/04/12 09:19:26;;;;;;;10.55;6.05;;;18.20;73.30;;;;;;4995999;28;20072;-81
2021/04/12 09:22:10;;;;;;;14.32;6.10;;;17.80;74.10;;;;;;5013338;28;20084;-77
2021/04/12 09:24:55;;;;;;;13.30;6.07;;;18.00;72.90;;;;;;4994289;28;20057;-78
2021/04/12 09:27:58;;;;;;;9.52;4.93;;;17.90;71.60;;;;;;4993095;28;20390;-78
2021/04/12 09:31:01;;;;;;;14.23;6.28;;;18.10;69.90;;;;;;4993607;28;20079;-80
2021/04/12 09:33:46;;;;;;;9.85;6.13;;;18.50;69.20;;;;;;4975837;28;20058;-81
2021/04/12 09:36:49;;;;;;;11.27;5.65;;;18.60;67.60;;;;;;4976697;28;20022;-81
2021/04/12 09:39:39;;;;;;;9.10;5.45;;;18.50;66.50;;;;;;4998137;28;20034;-78
2021/04/12 09:42:42;;;;;;;9.50;5.45;;;18.60;65.30;;;;;;5012653;28;20367;-79
2021/04/12 09:45:45;;;;;;;9.85;5.03;;;19.00;65.40;;;;;;5012999;28;20489;-79
2021/04/12 09:48:29;;;;;;;10.27;5.30;;;19.50;63.30;;;;;;5012750;28;20065;-83
2021/04/12 09:51:22;;;;;;;10.95;4.82;;;19.20;63.90;;;;;;5013591;28;20470;-78
2021/04/12 09:53:50;;;;;;;9.85;4.85;;;19.50;63.10;;;;;;4994785;28;20389;-77
2021/04/12 09:56:27;;;;;;;11.88;6.05;;;19.70;61.80;;;;;;5012648;28;20034;-79
2021/04/12 09:59:25;;;;;;;11.68;6.43;;;20.30;61.30;;;;;;5012053;28;20030;-78
2021/04/12 10:02:03;;;;;;;8.90;4.93;;;20.80;61.10;;;;;;5012268;28;20093;-76
2021/04/12 10:04:35;;;;;;;11.05;5.07;;;20.80;61.10;;;;;;4993721;28;20027;-79
2021/04/12 10:07:24;;;;;;;9.43;5.53;;;20.50;60.10;;;;;;4993477;28;20022;-78
2021/04/12 10:09:53;;;;;;;9.48;5.22;;;20.30;61.50;;;;;;4993041;28;20125;-82
2021/04/12 10:12:46;;;;;;;7.50;4.82;;;20.30;61.50;;;;;;4993022;28;20022;-82
2021/04/12 10:15:18;;;;;;;9.10;4.95;;;20.10;60.40;;;;;;5003936;28;20409;-78
2021/04/12 10:17:47;;;;;;;9.57;5.38;;;19.80;61.20;;;;;;5011924;28;20516;-82
2021/04/12 10:20:22;;;;;;;10.05;5.35;;;19.70;61.90;;;;;;5013048;28;20057;-82
2021/04/12 10:22:59;;;;;;;9.77;5.18;;;19.60;61.70;;;;;;5026371;28;20076;-81
2021/04/12 10:25:33;;;;;;;12.23;5.43;;;19.50;62.10;;;;;;5032263;28;20037;-83
2021/04/12 10:28:23;;;;;;;13.70;5.97;;;19.40;61.90;;;;;;5031446;28;20029;-78
2021/04/12 10:31:01;;;;;;;;;;;19.60;60.90;;;;;;4970654;28;20040;-82
2021/04/12 10:33:53;;;;;;;11.68;5.72;;;20.00;61.60;;;;;;5014180;28;20287;-79
2021/04/12 10:36:37;;;;;;;8.77;5.10;;;20.70;59.50;;;;;;5032289;28;20354;-76
2021/04/12 10:39:15;;;;;;;8.50;5.28;;;20.30;58.80;;;;;;5014274;28;20570;-80
2021/04/12 10:41:48;;;;;;;9.98;5.55;;;20.30;59.10;;;;;;5009366;28;20033;-80
2021/04/12 10:44:31;;;;;;;10.95;5.47;;;20.70;59.70;;;;;;5008160;28;20033;-79
2021/04/12 10:47:18;;;;;;;12.18;5.80;;;20.90;56.20;;;;;;5011695;28;20037;-78
2021/04/12 10:50:05;;;;;;;13.48;5.50;;;20.50;57.90;;;;;;5009561;28;20060;-81
2021/04/12 10:52:49;;;;;;;9.32;4.72;;;20.60;57.80;;;;;;5013085;28;20526;-80
2021/04/12 10:55:20;;;;;;;7.82;4.80;;;20.90;56.80;;;;;;5011248;28;20033;-85
2021/04/12 10:58:19;;;;;;;10.10;4.82;;;20.80;56.20;;;;;;5010684;28;20091;-80
2021/04/12 11:01:01;;;;;;;11.43;5.50;;;20.80;55.50;;;;;;4992415;28;20026;-79
2021/04/12 11:03:39;;;;;;;7.68;4.93;;;21.00;56.50;;;;;;5009678;28;20114;-82
2021/04/12 11:06:11;;;;;;;8.48;4.63;;;21.10;55.60;;;;;;4999847;28;20013;-83
2021/04/12 11:09:04;;;;;;;11.10;5.00;;;21.30;53.80;;;;;;4990150;28;20042;-85
2021/04/12 11:11:37;;;;;;;11.73;5.15;;;21.50;53.50;;;;;;4994744;28;20497;-83
2021/04/12 11:14:25;;;;;;;11.32;4.57;;;21.80;53.00;;;;;;5008534;28;20417;-79
2021/04/12 11:16:59;;;;;;;6.70;3.92;;;21.90;52.40;;;;;;4997687;28;20543;-80
2021/04/12 11:19:28;;;;;;;8.48;4.03;;;21.60;52.70;;;;;;5007683;28;20038;-79
2021/04/12 11:22:20;;;;;;;7.82;3.67;;;21.20;53.40;;;;;;5006720;28;20076;-80
2021/04/12 11:25:05;;;;;;;7.25;3.90;;;21.50;53.70;;;;;;4992635;28;20045;-79
2021/04/12 11:27:55;;;;;;;8.20;4.20;;;21.80;52.90;;;;;;5010539;28;20028;-81
2021/04/12 11:30:43;;;;;;;6.38;3.60;;;22.20;52.70;;;;;;5007853;28;20040;-84
2021/04/12 11:33:18;;;;;;;9.27;4.60;;;22.30;52.30;;;;;;4998960;28;20045;-82
2021/04/12 11:36:17;;;;;;;6.85;4.63;;;22.30;52.80;;;;;;5008115;28;20378;-81
2021/04/12 11:39:09;;;;;;;8.23;3.67;;;23.00;52.00;;;;;;4992906;28;20022;-80
2021/04/12 11:41:50;;;;;;;7.95;4.45;;;22.00;51.40;;;;;;4967143;28;20049;-76
2021/04/12 11:44:48;;;;;;;11.02;4.13;;;22.10;52.00;;;;;;4992893;28;20041;-77
2021/04/12 11:47:21;;;;;;;6.50;3.83;;;22.30;52.50;;;;;;4978352;28;20125;-77
2021/04/12 11:50:08;;;;;;;10.30;4.40;;;22.70;51.20;;;;;;5010836;28;20060;-83
2021/04/12 11:52:37;;;;;;;7.50;4.10;;;23.10;51.50;;;;;;4993779;28;20026;-79
2021/04/12 11:55:05;;;;;;;11.07;4.72;;;23.50;50.50;;;;;;5010819;28;20033;-80
2021/04/12 11:57:59;;;;;;;8.75;4.25;;;23.60;50.50;;;;;;5011091;28;20029;-77
2021/04/12 12:00:46;;;;;;;8.27;4.38;;;24.30;50.90;;;;;;5010461;28;20056;-76
2021/04/12 12:03:41;;;;;;;9.02;4.75;;;23.70;50.20;;;;;;5010750;28;20034;-78
2021/04/12 12:06:25;;;;;;;8.32;3.85;;;23.60;50.20;;;;;;5009968;28;20127;-80
2021/04/12 12:09:15;;;;;;;7.88;4.05;;;23.80;50.30;;;;;;5010627;28;20041;-79
2021/04/12 12:12:09;;;;;;;10.40;4.33;;;23.60;50.20;;;;;;5011236;28;20026;-79
2021/04/12 12:14:54;;;;;;;6.55;3.78;;;24.00;50.00;;;;;;5002196;28;20260;-80
2021/04/12 12:17:27;;;;;;;7.22;4.28;;;24.60;49.40;;;;;;5010597;28;20521;-79
2021/04/12 12:19:58;;;;;;;7.85;3.95;;;24.80;48.10;;;;;;5009798;28;20034;-77
2021/04/12 12:22:39;;;;;;;7.60;4.05;;;25.30;48.80;;;;;;5018949;28;20026;-80
2021/04/12 12:25:14;;;;;;;7.95;4.20;;;25.70;47.90;;;;;;5033632;28;20035;-82
2021/04/12 12:27:51;;;;;;;9.30;4.15;;;25.30;47.40;;;;;;5033603;28;20033;-80
2021/04/12 12:30:47;;;;;;;7.65;4.13;;;24.90;48.10;;;;;;5014120;28;20033;-78
2021/04/12 12:33:40;;;;;;;6.35;3.47;;;24.90;48.10;;;;;;5001397;28;20046;-79
2021/04/12 12:36:31;;;;;;;6.88;3.80;;;24.10;48.40;;;;;;4996891;28;20042;-81
2021/04/12 12:38:57;;;;;;;12.02;3.85;;;23.90;48.90;;;;;;5013572;28;20034;-83
2021/04/12 12:41:36;;;;;;;9.93;3.78;;;24.10;49.30;;;;;;5003345;28;20029;-84
2021/04/12 12:44:09;;;;;;;9.10;3.90;;;24.50;48.80;;;;;;4995520;28;20121;-83
2021/04/12 12:46:40;;;;;;;6.85;3.85;;;24.50;49.30;;;;;;5005509;28;20081;-78
2021/04/12 12:49:12;;;;;;;6.65;3.53;;;25.00;48.70;;;;;;5009175;28;20022;-87
2021/04/12 12:51:54;;;;;;;7.13;4.15;;;25.60;48.20;;;;;;5010397;28;20026;-80
2021/04/12 12:54:43;;;;;;;13.68;4.97;;;25.90;46.70;;;;;;5002345;28;20033;-79
2021/04/12 12:57:15;;;;;;;7.65;3.65;;;26.60;46.40;;;;;;5012352;28;20433;-80
2021/04/12 12:59:48;;;;;;;6.45;3.47;;;26.30;45.70;;;;;;5013116;28;20034;-83
2021/04/12 13:02:14;;;;;;;8.50;3.85;;;25.90;45.40;;;;;;4996804;28;20045;-80
2021/04/12 13:04:55;;;;;;;8.27;3.17;;;25.40;45.20;;;;;;5015699;28;20105;-84
2021/04/12 13:07:21;;;;;;;9.60;3.33;;;25.90;46.60;;;;;;4995467;28;20030;-82
2021/04/12 13:10:31;;;;;;;5.68;2.97;;;25.90;45.30;;;;;;5014138;28;20030;-79
2021/04/12 13:13:00;;;;;;;9.82;3.53;;;25.70;44.40;;;;;;4996293;28;20096;-83
2021/04/12 13:15:38;;;;;;;8.80;3.92;;;25.70;45.60;;;;;;5013461;28;20030;-82
2021/04/12 13:18:29;;;;;;;7.15;3.85;;;26.20;45.60;;;;;;5013478;28;20447;-84
2021/04/12 13:21:08;;;;;;;7.30;3.60;;;26.10;45.10;;;;;;5013325;28;20022;-81
2021/04/12 13:23:53;;;;;;;8.55;3.78;;;26.30;45.50;;;;;;5030292;28;20022;-81
2021/04/12 13:26:40;;;;;;;8.48;3.83;;;26.70;44.80;;;;;;5032861;28;20066;-83
2021/04/12 13:29:23;;;;;;;8.50;4.00;;;26.90;44.40;;;;;;5015911;28;20421;-79
2021/04/12 13:31:53;;;;;;;7.50;3.70;;;25.30;45.90;;;;;;4999753;28;20065;-81
2021/04/12 13:34:21;;;;;;;9.32;3.90;;;26.00;45.30;;;;;;5013423;28;20041;-79
2021/04/12 13:37:13;;;;;;;11.95;4.50;;;26.90;45.10;;;;;;5012608;28;20034;-82
2021/04/12 13:39:50;;;;;;;7.50;4.00;;;27.70;44.70;;;;;;5013523;28;20021;-82
2021/04/12 13:42:26;;;;;;;8.32;3.42;;;27.70;43.70;;;;;;5012647;28;20057;-84
2021/04/12 13:44:57;;;;;;;9.07;3.85;;;27.00;44.20;;;;;;4996274;28;20041;-81
2021/04/12 13:47:56;;;;;;;8.43;4.10;;;26.90;43.40;;;;;;5005193;28;20030;-79
2021/04/12 13:50:34;;;;;;;9.33;3.67;;;26.80;44.20;;;;;;5013193;28;20057;-83
2021/04/12 13:53:34;;;;;;;9.77;3.45;;;27.10;43.30;;;;;;5013269;28;20478;-79
2021/04/12 13:56:16;;;;;;;15.10;3.97;;;27.10;43.10;;;;;;4999368;28;20058;-83
2021/04/12 13:59:17;;;;;;;15.98;4.18;;;28.10;42.80;;;;;;5013672;28;20038;-78
2021/04/12 14:02:29;;;;;;;9.98;3.45;;;27.60;42.40;;;;;;5001621;28;20104;-82
2021/04/12 14:05:04;;;;;;;6.43;3.05;;;27.70;42.00;;;;;;5013350;28;20100;-82
2021/04/12 14:07:41;;;;;;;7.28;3.63;;;27.00;41.50;;;;;;4994946;28;20034;-80
2021/04/12 14:10:12;;;;;;;11.13;3.78;;;26.60;42.20;;;;;;5013340;28;20592;-81
2021/04/12 14:12:58;;;;;;;7.47;3.30;;;26.50;42.30;;;;;;5012323;28;20029;-82
2021/04/12 14:15:47;;;;;;;9.75;3.40;;;27.50;41.70;;;;;;5013167;28;20382;-81
2021/04/12 14:18:32;;;;;;;12.15;3.78;;;30.60;40.50;;;;;;5012950;28;20394;-79
2021/04/12 14:21:08;;;;;;;9.95;3.22;;;33.30;38.30;;;;;;5012303;28;20030;-80